createdAt,value
2019-06-20T00:01:32.799Z,1.30
2019-06-20T00:04:02.927Z,1.60
2019-06-20T00:06:34.825Z,1.53
2019-06-20T00:09:06.343Z,1.60
2019-06-20T00:11:36.462Z,1.57
2019-06-20T00:14:07.550Z,1.50
2019-06-20T00:16:37.709Z,1.50
2019-06-20T00:19:07.790Z,1.60
2019-06-20T00:21:37.923Z,1.30
2019-06-20T00:24:09.047Z,1.30
2019-06-20T00:26:39.153Z,1.50
2019-06-20T00:29:09.275Z,1.60
2019-06-20T00:31:39.459Z,1.30
2019-06-20T00:34:09.579Z,1.47
2019-06-20T00:36:39.711Z,1.53
2019-06-20T00:39:09.831Z,1.40
2019-06-20T00:41:39.980Z,1.57
2019-06-20T00:44:10.192Z,1.60
2019-06-20T00:46:40.310Z,1.33
2019-06-20T00:49:10.421Z,1.30
2019-06-20T00:51:40.552Z,1.73
2019-06-20T00:54:10.837Z,1.20
2019-06-20T00:56:40.957Z,1.27
2019-06-20T00:59:11.074Z,1.50
2019-06-20T01:01:41.214Z,1.23
2019-06-20T01:04:11.371Z,1.30
2019-06-20T01:06:41.803Z,1.30
2019-06-20T01:09:11.999Z,1.70
2019-06-20T01:11:42.116Z,1.57
2019-06-20T01:14:12.255Z,1.43
2019-06-20T01:16:42.380Z,1.10
2019-06-20T01:19:12.510Z,1.20
2019-06-20T01:21:42.624Z,1.50
2019-06-20T01:24:12.782Z,1.60
2019-06-20T01:26:43.873Z,1.20
2019-06-20T01:29:14.008Z,1.50
2019-06-20T01:31:44.132Z,1.30
2019-06-20T01:34:14.247Z,1.30
2019-06-20T01:36:44.391Z,1.20
2019-06-20T01:39:14.503Z,1.20
2019-06-20T01:41:44.625Z,1.40
2019-06-20T01:44:14.740Z,1.60
2019-06-20T01:46:45.844Z,1.20
2019-06-20T01:49:15.964Z,1.30
2019-06-20T01:51:46.095Z,1.50
2019-06-20T01:54:16.235Z,1.30
2019-06-20T01:56:46.373Z,1.30
2019-06-20T01:59:16.477Z,1.50
2019-06-20T02:01:46.609Z,1.40
2019-06-20T02:04:16.985Z,1.50
2019-06-20T02:06:47.127Z,1.40
2019-06-20T02:09:17.230Z,1.50
2019-06-20T02:11:47.504Z,1.37
2019-06-20T02:14:17.559Z,1.50
2019-06-20T02:16:47.677Z,1.17
2019-06-20T02:19:17.804Z,1.30
2019-06-20T02:21:47.915Z,1.30
2019-06-20T02:24:18.029Z,1.50
2019-06-20T02:26:48.149Z,1.30
2019-06-20T02:29:19.239Z,1.20
2019-06-20T02:31:49.361Z,1.30
2019-06-20T02:34:19.484Z,1.20
2019-06-20T02:36:49.623Z,1.50
2019-06-20T02:39:19.734Z,1.30
2019-06-20T02:41:49.851Z,1.30
2019-06-20T02:44:29.961Z,1.37
2019-06-20T02:46:51.816Z,1.33
2019-06-20T02:49:21.989Z,1.20
2019-06-20T02:51:52.121Z,1.10
2019-06-20T02:54:22.252Z,1.53
2019-06-20T02:56:52.365Z,1.20
2019-06-20T02:59:22.490Z,1.27
2019-06-20T03:01:52.628Z,1.70
2019-06-20T03:04:22.771Z,1.33
2019-06-20T03:06:52.869Z,1.70
2019-06-20T03:09:22.992Z,1.60
2019-06-20T03:11:53.128Z,1.60
2019-06-20T03:14:23.262Z,1.40
2019-06-20T03:16:53.375Z,1.90
2019-06-20T03:19:23.535Z,1.50
2019-06-20T03:21:53.645Z,1.00
2019-06-20T03:24:23.767Z,1.27
2019-06-20T03:26:53.880Z,1.50
2019-06-20T03:29:24.004Z,1.30
2019-06-20T03:31:54.128Z,1.40
2019-06-20T03:34:24.252Z,1.40
2019-06-20T03:36:54.359Z,1.20
2019-06-20T03:39:24.487Z,1.40
2019-06-20T03:41:54.668Z,1.57
2019-06-20T03:44:24.808Z,1.40
2019-06-20T03:46:54.939Z,1.37
2019-06-20T03:49:25.079Z,1.23
2019-06-20T03:51:55.189Z,1.30
2019-06-20T03:54:25.387Z,1.30
2019-06-20T03:56:55.533Z,1.30
2019-06-20T03:59:25.649Z,1.43
2019-06-20T04:01:55.811Z,1.20
2019-06-20T04:04:25.922Z,1.23
2019-06-20T04:06:56.027Z,1.30
2019-06-20T04:09:26.152Z,1.40
2019-06-20T04:11:56.293Z,1.40
2019-06-20T04:14:26.409Z,1.23
2019-06-20T04:16:56.532Z,1.30
2019-06-20T04:19:26.830Z,1.30
2019-06-20T04:21:56.948Z,1.07
2019-06-20T04:24:28.018Z,1.53
2019-06-20T04:26:58.176Z,1.30
2019-06-20T04:29:28.299Z,1.17
2019-06-20T04:31:58.441Z,1.50
2019-06-20T04:34:28.560Z,1.20
2019-06-20T04:36:58.673Z,1.17
2019-06-20T04:39:28.799Z,1.30
2019-06-20T04:41:58.910Z,1.33
2019-06-20T04:44:29.034Z,1.23
2019-06-20T04:47:09.469Z,1.00
2019-06-20T04:49:39.591Z,1.33
2019-06-20T04:52:09.714Z,1.10
2019-06-20T04:54:39.916Z,1.27
2019-06-20T04:57:10.056Z,1.30
2019-06-20T04:59:40.218Z,1.23
2019-06-20T05:02:10.305Z,1.20
2019-06-20T05:04:40.435Z,1.00
2019-06-20T05:07:15.624Z,1.00
2019-06-20T05:09:45.750Z,1.27
2019-06-20T05:12:16.855Z,1.20
2019-06-20T05:14:46.977Z,1.20
2019-06-20T05:17:17.091Z,1.30
2019-06-20T05:19:47.211Z,1.10
2019-06-20T05:22:17.334Z,1.30
2019-06-20T05:24:47.476Z,1.10
2019-06-20T05:27:17.742Z,1.20
2019-06-20T05:29:47.876Z,1.40
2019-06-20T05:32:17.976Z,1.27
2019-06-20T05:34:48.133Z,1.33
2019-06-20T05:37:18.246Z,1.10
2019-06-20T05:39:49.354Z,1.23
2019-06-20T05:42:19.468Z,1.27
2019-06-20T05:44:49.598Z,1.30
2019-06-20T05:47:19.743Z,1.10
2019-06-20T05:49:49.871Z,1.23
2019-06-20T05:52:19.997Z,1.17
2019-06-20T05:54:50.216Z,1.50
2019-06-20T05:57:20.329Z,1.33
2019-06-20T06:02:55.136Z,1.30
2019-06-20T06:05:40.531Z,1.20
2019-06-20T06:14:37.935Z,1.57
2019-06-20T06:17:11.135Z,1.23
2019-06-20T06:19:41.327Z,1.47
2019-06-20T06:22:11.505Z,1.50
2019-06-20T06:24:41.758Z,1.50
2019-06-20T06:27:11.920Z,1.37
2019-06-20T06:29:42.079Z,1.20
2019-06-20T06:32:12.356Z,1.40
2019-06-20T06:34:45.314Z,1.60
2019-06-20T06:37:15.455Z,1.70
2019-06-20T06:39:47.260Z,1.80
2019-06-20T06:42:17.373Z,1.83
2019-06-20T06:44:47.562Z,1.90
2019-06-20T06:47:17.706Z,1.60
2019-06-20T06:49:47.830Z,1.70
2019-06-20T06:52:17.977Z,2.10
2019-06-20T06:54:48.157Z,2.00
2019-06-20T06:57:19.300Z,1.70
2019-06-20T06:59:49.501Z,2.10
2019-06-20T07:02:20.753Z,2.07
2019-06-20T07:04:50.957Z,1.80
2019-06-20T07:07:21.656Z,2.33
2019-06-20T07:09:51.823Z,1.83
2019-06-20T07:12:21.905Z,1.90
2019-06-20T07:14:52.050Z,2.00
2019-06-20T07:17:23.814Z,1.80
2019-06-20T07:19:53.957Z,2.00
2019-06-20T07:22:24.081Z,1.77
2019-06-20T07:24:54.228Z,1.87
2019-06-20T07:27:24.469Z,2.07
2019-06-20T07:29:54.614Z,2.23
2019-06-20T07:32:24.765Z,1.80
2019-06-20T07:34:54.893Z,1.70
2019-06-20T07:37:25.021Z,1.80
2019-06-20T07:39:55.169Z,1.70
2019-06-20T07:42:28.470Z,2.00
2019-06-20T07:44:58.591Z,1.60
2019-06-20T07:47:28.720Z,1.67
2019-06-20T07:49:58.969Z,1.40
2019-06-20T07:52:29.288Z,1.57
2019-06-20T07:54:59.478Z,1.60
2019-06-20T07:57:29.796Z,1.13
2019-06-20T07:59:59.972Z,1.47
2019-06-20T08:02:30.108Z,1.50
2019-06-20T08:05:00.210Z,1.67
2019-06-20T08:07:30.337Z,1.53
2019-06-20T08:10:00.523Z,1.80
2019-06-20T08:12:30.679Z,1.47
2019-06-20T08:15:14.018Z,1.60
2019-06-20T08:17:35.570Z,2.03
2019-06-20T08:20:12.597Z,1.37
2019-06-20T08:23:02.516Z,1.20
2019-06-20T08:25:32.640Z,1.40
2019-06-20T08:28:04.919Z,1.60
2019-06-20T08:30:38.834Z,1.60
2019-06-20T08:33:11.828Z,1.60
2019-06-20T08:35:41.084Z,1.60
2019-06-20T08:38:11.235Z,1.23
2019-06-20T08:40:42.276Z,1.50
2019-06-20T08:43:12.412Z,1.20
2019-06-20T08:45:45.053Z,1.40
2019-06-20T08:48:15.193Z,1.30
2019-06-20T08:50:45.314Z,1.10
2019-06-20T08:53:15.536Z,1.13
2019-06-20T08:55:45.666Z,1.10
2019-06-20T08:58:15.802Z,1.90
2019-06-20T09:00:47.349Z,1.60
2019-06-20T09:03:17.456Z,1.40
2019-06-20T09:05:49.198Z,1.40
2019-06-20T09:08:19.350Z,1.30
2019-06-20T09:10:49.760Z,1.40
2019-06-20T09:13:19.912Z,1.30
2019-06-20T09:15:50.148Z,1.40
2019-06-20T09:18:21.212Z,1.40
2019-06-20T09:20:52.685Z,1.40
2019-06-20T09:23:23.279Z,1.30
2019-06-20T09:25:53.401Z,1.43
2019-06-20T09:28:23.591Z,1.40
2019-06-20T09:30:55.181Z,1.40
2019-06-20T09:33:25.392Z,1.40
2019-06-20T09:35:57.505Z,1.33
2019-06-20T09:38:27.878Z,1.30
2019-06-20T09:40:59.206Z,1.50
2019-06-20T09:43:29.403Z,1.30
2019-06-20T09:46:02.363Z,1.30
2019-06-20T09:48:32.656Z,1.60
2019-06-20T09:51:04.755Z,1.20
2019-06-20T09:53:34.923Z,1.40
2019-06-20T09:56:05.060Z,1.43
2019-06-20T09:58:35.197Z,1.03
2019-06-20T10:01:05.432Z,1.20
2019-06-20T10:03:35.551Z,0.90
2019-06-20T10:06:13.342Z,1.10
2019-06-20T10:08:37.503Z,1.20
2019-06-20T10:11:07.635Z,1.13
2019-06-20T10:13:37.742Z,1.00
2019-06-20T10:16:08.086Z,1.00
2019-06-20T10:18:38.218Z,1.10
2019-06-20T10:21:08.343Z,1.20
2019-06-20T10:23:38.461Z,0.97
2019-06-20T10:26:09.488Z,0.73
2019-06-20T10:28:39.624Z,1.00
2019-06-20T10:31:09.791Z,1.10
2019-06-20T10:33:40.302Z,1.07
2019-06-20T10:36:10.389Z,0.93
2019-06-20T10:38:41.957Z,1.10
2019-06-20T10:41:14.814Z,1.10
2019-06-20T10:43:45.769Z,1.13
2019-06-20T10:46:16.986Z,1.27
2019-06-20T10:48:47.992Z,1.00
2019-06-20T10:51:32.583Z,1.10
2019-06-20T10:54:04.711Z,1.07
2019-06-20T10:56:35.094Z,1.40
2019-06-20T10:59:05.638Z,1.10
2019-06-20T11:01:35.995Z,1.00
2019-06-20T11:04:06.267Z,1.03
2019-06-20T11:06:37.426Z,1.33
2019-06-20T11:09:09.380Z,1.17
2019-06-20T11:11:40.163Z,1.07
2019-06-20T11:14:12.457Z,1.20
2019-06-20T11:16:43.511Z,1.23
2019-06-20T11:19:13.980Z,1.20
2019-06-20T11:21:45.633Z,1.23
2019-06-20T11:24:15.871Z,1.30
2019-06-20T11:26:46.108Z,1.20
2019-06-20T11:29:16.282Z,1.23
2019-06-20T11:31:47.920Z,1.20
2019-06-20T11:34:18.277Z,1.63
2019-06-20T11:36:48.436Z,1.73
2019-06-20T11:39:18.558Z,1.40
2019-06-20T11:41:48.723Z,1.17
2019-06-20T11:44:21.816Z,1.00
2019-06-20T11:46:52.186Z,1.00
2019-06-20T11:49:22.458Z,0.90
2019-06-20T11:51:55.458Z,0.87
2019-06-20T11:54:26.902Z,1.03
2019-06-20T11:56:56.969Z,1.03
2019-06-20T11:59:27.269Z,0.90
2019-06-20T12:01:57.403Z,1.20
2019-06-20T12:04:28.093Z,0.80
2019-06-20T12:06:58.461Z,0.90
2019-06-20T12:09:28.667Z,1.00
2019-06-20T12:11:58.791Z,1.33
2019-06-20T12:14:33.065Z,0.83
2019-06-20T12:17:14.265Z,0.70
2019-06-20T12:19:44.499Z,0.87
2019-06-20T12:22:24.153Z,0.73
2019-06-20T12:24:58.627Z,1.10
2019-06-20T12:27:33.047Z,1.10
2019-06-20T12:30:04.921Z,1.00
2019-06-20T12:32:35.706Z,1.30
2019-06-20T12:35:09.642Z,1.13
2019-06-20T12:37:40.558Z,1.27
2019-06-20T12:40:10.837Z,1.10
2019-06-20T12:42:44.919Z,1.10
2019-06-20T12:45:15.939Z,1.00
2019-06-20T12:47:46.329Z,0.90
2019-06-20T12:50:16.484Z,1.10
2019-06-20T12:52:47.591Z,1.10
2019-06-20T12:55:17.929Z,0.93
2019-06-20T12:57:48.631Z,0.93
2019-06-20T13:00:22.207Z,0.80
2019-06-20T13:02:52.478Z,1.00
2019-06-20T13:05:23.202Z,0.90
2019-06-20T13:07:53.317Z,0.90
2019-06-20T13:10:23.469Z,0.60
2019-06-20T13:12:53.603Z,0.80
2019-06-20T13:15:23.729Z,0.73
2019-06-20T13:17:53.874Z,0.80
2019-06-20T13:20:24.198Z,1.00
2019-06-20T13:22:54.409Z,0.90
2019-06-20T13:25:24.533Z,0.90
2019-06-20T13:27:54.688Z,1.13
2019-06-20T13:30:24.825Z,1.07
2019-06-20T13:32:54.958Z,0.97
2019-06-20T13:35:25.129Z,0.80
2019-06-20T13:37:55.217Z,0.80
2019-06-20T13:40:25.365Z,1.10
2019-06-20T13:42:55.542Z,1.00
2019-06-20T13:45:26.709Z,0.90
2019-06-20T13:47:56.861Z,0.90
2019-06-20T13:50:27.457Z,0.90
2019-06-20T13:52:57.618Z,0.90
2019-06-20T13:55:27.771Z,0.80
2019-06-20T13:57:57.879Z,1.20
2019-06-20T14:00:28.279Z,1.27
2019-06-20T14:02:58.431Z,1.10
2019-06-20T14:05:28.529Z,1.20
2019-06-20T14:07:58.652Z,1.40
2019-06-20T14:10:28.811Z,1.13
2019-06-20T14:12:58.925Z,1.27
2019-06-20T14:15:29.053Z,1.20
2019-06-20T14:17:59.262Z,1.37
2019-06-20T14:20:29.416Z,1.30
2019-06-20T14:22:59.551Z,1.13
2019-06-20T14:25:30.122Z,1.30
2019-06-20T14:28:01.224Z,1.43
2019-06-20T14:30:31.354Z,1.03
2019-06-20T14:33:01.493Z,1.27
2019-06-20T14:35:31.678Z,1.23
2019-06-20T14:38:01.911Z,1.27
2019-06-20T14:40:32.876Z,1.17
2019-06-20T14:43:03.171Z,1.67
2019-06-20T14:45:33.353Z,1.43
2019-06-20T14:48:04.118Z,1.03
2019-06-20T14:50:34.325Z,1.17
2019-06-20T14:53:04.460Z,1.10
2019-06-20T14:55:34.573Z,0.93
2019-06-20T14:58:04.981Z,1.27
2019-06-20T15:00:36.738Z,0.90
2019-06-20T15:03:08.494Z,0.90
2019-06-20T15:05:38.603Z,0.83
2019-06-20T15:08:08.730Z,1.23
2019-06-20T15:10:41.578Z,1.23
2019-06-20T15:13:11.708Z,0.90
2019-06-20T15:15:41.822Z,0.93
2019-06-20T15:18:12.008Z,0.93
2019-06-20T15:20:42.133Z,1.27
2019-06-20T15:23:12.254Z,0.80
2019-06-20T15:25:42.391Z,1.00
2019-06-20T15:28:12.532Z,1.00
2019-06-20T15:30:42.655Z,1.10
2019-06-20T15:33:13.062Z,0.90
2019-06-20T15:35:43.237Z,0.93
2019-06-20T15:38:13.441Z,1.00
2019-06-20T15:40:43.642Z,0.90
2019-06-20T15:43:13.752Z,0.93
2019-06-20T15:45:44.092Z,1.20
2019-06-20T15:48:14.253Z,0.83
2019-06-20T15:50:44.549Z,1.00
2019-06-20T15:53:14.749Z,0.90
2019-06-20T15:55:44.870Z,0.90
2019-06-20T15:58:14.992Z,0.70
2019-06-20T16:00:45.186Z,1.10
2019-06-20T16:03:15.348Z,0.90
2019-06-20T16:05:45.743Z,1.00
2019-06-20T16:08:16.622Z,1.00
2019-06-20T16:10:46.880Z,0.87
2019-06-20T16:13:17.163Z,1.07
2019-06-20T16:15:48.996Z,1.50
2019-06-20T16:18:19.196Z,0.87
2019-06-20T16:20:49.451Z,0.97
2019-06-20T16:23:19.615Z,1.00
2019-06-20T16:25:49.829Z,1.00
2019-06-20T16:28:19.977Z,0.97
2019-06-20T16:30:50.114Z,1.00
2019-06-20T16:33:25.060Z,0.90
2019-06-20T16:35:52.089Z,1.20
2019-06-20T16:38:22.312Z,0.90
2019-06-20T16:40:52.429Z,0.83
2019-06-20T16:43:22.633Z,1.20
2019-06-20T16:45:52.749Z,1.20
2019-06-20T16:48:22.920Z,0.87
2019-06-20T16:50:53.187Z,1.07
2019-06-20T16:53:23.406Z,0.97
2019-06-20T16:55:53.546Z,0.93
2019-06-20T16:58:23.736Z,0.90
2019-06-20T17:00:53.886Z,1.10
2019-06-20T17:03:40.521Z,0.83
2019-06-20T17:05:55.838Z,1.10
2019-06-20T17:08:26.013Z,0.87
2019-06-20T17:10:56.213Z,1.07
2019-06-20T17:13:26.371Z,0.80
2019-06-20T17:15:56.518Z,0.80
2019-06-20T17:18:26.630Z,0.80
2019-06-20T17:20:56.750Z,1.00
2019-06-20T17:23:26.867Z,0.70
2019-06-20T17:25:57.019Z,0.90
2019-06-20T17:28:27.158Z,0.60
2019-06-20T17:30:57.326Z,0.60
2019-06-20T17:33:27.457Z,0.70
2019-06-20T17:35:57.573Z,1.00
2019-06-20T17:38:27.758Z,1.00
2019-06-20T17:40:57.946Z,0.90
2019-06-20T17:43:28.211Z,1.23
2019-06-20T17:45:58.311Z,1.00
2019-06-20T17:48:28.423Z,0.90
2019-06-20T17:50:58.560Z,0.70
2019-06-20T17:53:28.699Z,0.80
2019-06-20T17:55:58.808Z,0.90
2019-06-20T17:58:28.933Z,0.90
2019-06-20T18:00:59.127Z,0.80
2019-06-20T18:03:29.253Z,0.60
2019-06-20T18:05:59.423Z,0.90
2019-06-20T18:08:29.546Z,0.80
2019-06-20T18:10:59.719Z,0.70
2019-06-20T18:13:29.884Z,0.80
2019-06-20T18:16:00.171Z,0.50
2019-06-20T18:18:30.422Z,0.63
2019-06-20T18:21:00.593Z,0.60
2019-06-20T18:23:30.732Z,0.63
2019-06-20T18:26:01.039Z,0.50
2019-06-20T18:28:31.206Z,0.70
2019-06-20T18:31:01.345Z,0.60
2019-06-20T18:33:31.540Z,0.70
2019-06-20T18:36:01.667Z,0.70
2019-06-20T18:38:31.864Z,0.70
2019-06-20T18:41:02.404Z,0.70
2019-06-20T18:43:32.537Z,0.60
2019-06-20T18:46:02.865Z,0.70
2019-06-20T18:48:32.986Z,0.70
2019-06-20T18:51:03.828Z,0.60
2019-06-20T18:53:35.648Z,0.67
2019-06-20T18:56:06.797Z,0.77
2019-06-20T18:58:36.922Z,0.83
2019-06-20T19:01:07.074Z,0.70
2019-06-20T19:03:37.248Z,0.50
2019-06-20T19:06:07.417Z,0.50
2019-06-20T19:08:37.676Z,0.53
2019-06-20T19:11:07.821Z,0.80
2019-06-20T19:13:38.015Z,0.67
2019-06-20T19:16:08.150Z,0.70
2019-06-20T19:18:38.296Z,0.80
2019-06-20T19:21:08.518Z,0.53
2019-06-20T19:23:38.636Z,0.70
2019-06-20T19:26:08.905Z,0.77
2019-06-20T19:28:39.045Z,0.47
2019-06-20T19:31:09.240Z,0.60
2019-06-20T19:33:39.345Z,0.67
2019-06-20T19:36:09.464Z,0.60
2019-06-20T19:38:39.626Z,0.40
2019-06-20T19:41:09.742Z,0.77
2019-06-20T19:43:39.872Z,0.70
2019-06-20T19:46:10.005Z,0.60
2019-06-20T19:48:40.124Z,0.60
2019-06-20T19:51:10.269Z,0.57
2019-06-20T19:53:40.403Z,0.60
2019-06-20T19:56:10.526Z,0.67
2019-06-20T19:58:40.656Z,0.70
2019-06-20T20:01:10.800Z,0.60
2019-06-20T20:03:40.914Z,0.90
2019-06-20T20:06:11.056Z,0.60
2019-06-20T20:08:41.195Z,0.70
2019-06-20T20:11:11.345Z,0.73
2019-06-20T20:13:41.466Z,0.70
2019-06-20T20:16:11.640Z,0.50
2019-06-20T20:18:41.912Z,0.50
2019-06-20T20:21:12.063Z,0.50
2019-06-20T20:23:42.277Z,0.50
2019-06-20T20:26:14.029Z,0.67
2019-06-20T20:28:44.178Z,0.50
2019-06-20T20:31:14.364Z,0.80
2019-06-20T20:33:44.633Z,0.67
2019-06-20T20:36:24.569Z,0.70
2019-06-20T20:38:47.732Z,0.60
2019-06-20T20:41:18.852Z,0.50
2019-06-20T20:43:49.070Z,0.60
2019-06-20T20:46:19.283Z,0.70
2019-06-20T20:48:49.388Z,0.60
2019-06-20T20:51:19.563Z,0.57
2019-06-20T20:53:50.685Z,0.60
2019-06-20T20:56:21.801Z,0.73
2019-06-20T20:58:51.969Z,0.60
2019-06-20T21:01:28.030Z,0.70
2019-06-20T21:03:59.095Z,0.60
2019-06-20T21:06:31.271Z,0.57
2019-06-20T21:09:02.360Z,0.50
2019-06-20T21:11:37.745Z,0.67
2019-06-20T21:14:07.931Z,0.60
2019-06-20T21:16:40.187Z,0.60
2019-06-20T21:19:10.410Z,0.60
2019-06-20T21:21:52.395Z,0.70
2019-06-20T21:24:22.678Z,0.67
2019-06-20T21:26:54.774Z,0.50
2019-06-20T21:29:25.874Z,0.77
2019-06-20T21:31:56.006Z,0.57
2019-06-20T21:34:26.199Z,0.63
2019-06-20T21:36:56.362Z,0.63
2019-06-20T21:39:26.500Z,0.80
2019-06-20T21:41:56.641Z,0.70
2019-06-20T21:44:26.782Z,0.87
2019-06-20T21:46:56.907Z,0.80
2019-06-20T21:49:27.042Z,0.70
2019-06-20T21:51:57.161Z,0.70
2019-06-20T21:54:27.285Z,0.60
2019-06-20T21:56:57.402Z,0.57
2019-06-20T21:59:27.529Z,0.50
2019-06-20T22:01:57.985Z,0.67
2019-06-20T22:04:28.288Z,0.70
2019-06-20T22:06:59.411Z,0.47
2019-06-20T22:09:29.529Z,0.60
2019-06-20T22:11:59.641Z,0.73
2019-06-20T22:14:32.466Z,0.70
2019-06-20T22:17:01.739Z,0.70
2019-06-20T22:19:31.864Z,0.70
2019-06-20T22:22:02.009Z,0.80
2019-06-20T22:24:33.061Z,0.80
2019-06-20T22:27:03.202Z,0.60
2019-06-20T22:29:33.328Z,0.70
2019-06-20T22:32:03.487Z,0.60
2019-06-20T22:34:33.577Z,0.70
2019-06-20T22:37:03.813Z,0.50
2019-06-20T22:39:34.277Z,0.70
2019-06-20T22:42:04.394Z,0.60
2019-06-20T22:44:34.884Z,0.77
2019-06-20T22:47:06.087Z,0.70
2019-06-20T22:49:36.222Z,0.67
2019-06-20T22:52:06.744Z,0.67
2019-06-20T22:54:37.034Z,0.97
2019-06-20T22:57:07.272Z,0.47
2019-06-20T22:59:37.411Z,0.60
2019-06-20T23:02:07.520Z,0.77
2019-06-20T23:04:37.666Z,0.60
2019-06-20T23:07:07.785Z,0.70
2019-06-20T23:09:37.968Z,0.80
2019-06-20T23:12:08.066Z,0.57
2019-06-20T23:14:38.217Z,0.50
2019-06-20T23:17:08.294Z,0.70
2019-06-20T23:19:38.412Z,0.90
2019-06-20T23:22:08.609Z,0.70
2019-06-20T23:24:38.766Z,0.70
2019-06-20T23:27:08.883Z,0.70
2019-06-20T23:29:39.005Z,0.57
2019-06-20T23:32:09.119Z,0.80
2019-06-20T23:34:39.247Z,0.93
2019-06-20T23:37:13.065Z,0.60
2019-06-20T23:39:41.201Z,0.50
2019-06-20T23:42:11.346Z,0.73
2019-06-20T23:44:41.442Z,0.63
2019-06-20T23:47:11.560Z,0.80
2019-06-20T23:49:41.678Z,0.50
2019-06-20T23:52:22.242Z,0.60
2019-06-20T23:54:52.393Z,0.87
2019-06-20T23:57:22.491Z,0.60
2019-06-20T23:59:52.626Z,0.63
